Bookmark and Share
Track history (hours):
 

Fure West

Last reported at 2014-Apr-24 13:33 UTC. Time now 2014-Apr-24 14:07 UTC.
Position N 53°54' E 009°09'.

Length 144 m; draft 9 m.

Type: Tanker. MMSI: 231775000.

NotesDate/timePositionNaut miles runAvg speedWind from/ knotsBaromVisibWave heightAir tempDewpointWater temp
2014-Apr-24 13:33N 53°54' E 009°09'1 1.1
2014-Apr-24 12:33N 53°54' E 009°10'6 5.9
2014-Apr-24 11:33N 53°59' E 009°17'7 6.8
2014-Apr-24 10:33N 54°05' E 009°19'5 4.8
2014-Apr-24 09:33N 54°10' E 009°24'6 6.0
2014-Apr-24 08:33N 54°12' E 009°33'62 5.6
2014-Apr-23 21:33N 54°36' E 011°10'1212.3
2014-Apr-23 20:33N 54°31' E 011°30'1211.8
2014-Apr-23 19:33N 54°27' E 011°49'1211.9
2014-Apr-23 18:33N 54°26' E 012°10'1212.0
2014-Apr-23 17:33N 54°37' E 012°17'1212.2
2014-Apr-23 16:33N 54°44' E 012°35'1211.6
2014-Apr-23 15:33N 54°47' E 012°55'1212.1
2014-Apr-23 14:33N 54°47' E 013°16'1211.6
2014-Apr-23 13:33N 54°46' E 013°36'1211.8
2014-Apr-23 12:33N 54°42' E 013°55'1212.2
2014-Apr-23 11:33N 54°39' E 014°16'7212.0
2014-Apr-23 05:31N 54°48' E 016°20'1312.0
2014-Apr-23 04:28N 54°50' E 016°42'2312.2
2014-Apr-23 02:34N 54°55' E 017°21'1212.1
2014-Apr-23 01:34N 54°58' E 017°42'1212.0
2014-Apr-23 00:33N 54°58' E 018°03'1212.3
2014-Apr-22 23:33N 54°58' E 018°24'1211.7
2014-Apr-22 22:34N 54°55' E 018°44'1211.6
2014-Apr-22 21:33N 54°52' E 019°03'1111.5
2014-Apr-22 20:33N 54°49' E 019°22'1211.7
2014-Apr-22 19:34N 54°43' E 019°40'10 9.6
2014-Apr-22 18:30N 54°38' E 019°55'5 0.2
2014-Apr-21 22:30N 54°39' E 020°03'7 7.6
2014-Apr-21 21:33N 54°39' E 019°50'2 2.0
2014-Apr-21 20:31N 54°40' E 019°47'0 0.0
2014-Apr-21 19:25N 54°40' E 019°47'0 0.0
2014-Apr-21 18:31N 54°40' E 019°47'0 0.0
2014-Apr-21 17:31N 54°40' E 019°47'0 0.0
2014-Apr-21 16:31N 54°40' E 019°47'0 0.0
2014-Apr-21 15:31N 54°40' E 019°47'0 0.0
2014-Apr-21 14:31N 54°40' E 019°47'0 0.0
2014-Apr-21 13:22N 54°40' E 019°47'0 0.0
2014-Apr-21 12:31N 54°40' E 019°47'0 0.0
2014-Apr-21 11:28N 54°40' E 019°47'0 0.0
2014-Apr-21 10:25N 54°40' E 019°47'0 0.0
2014-Apr-21 09:19N 54°40' E 019°47'0 0.0
2014-Apr-21 08:31N 54°40' E 019°47'0 0.0
2014-Apr-21 07:31N 54°40' E 019°47'0 0.0
2014-Apr-21 06:28N 54°40' E 019°47'0 0.0
2014-Apr-21 05:16N 54°40' E 019°47'0 0.0
2014-Apr-21 04:22N 54°40' E 019°47'0 0.0
2014-Apr-21 03:28N 54°40' E 019°47'0 0.0
2014-Apr-21 02:31N 54°40' E 019°47'0 0.1
2014-Apr-21 01:31N 54°40' E 019°47'0 0.0
2014-Apr-21 00:31N 54°40' E 019°47'0 0.0
2014-Apr-20 23:13N 54°40' E 019°47'0 0.1
2014-Apr-20 22:31N 54°40' E 019°47'0 0.0
2014-Apr-20 21:31N 54°40' E 019°47'0 0.0
2014-Apr-20 20:28N 54°40' E 019°47'0 0.0
2014-Apr-20 19:31N 54°40' E 019°47'0 0.0
2014-Apr-20 18:31N 54°40' E 019°47'0 0.0
2014-Apr-20 17:31N 54°40' E 019°47'0 0.0
2014-Apr-20 16:31N 54°40' E 019°47'0 0.0
2014-Apr-20 15:25N 54°40' E 019°47'0 0.0
2014-Apr-20 14:31N 54°40' E 019°47'0 0.0
2014-Apr-20 13:34N 54°40' E 019°47'0 0.0
2014-Apr-20 12:33N 54°40' E 019°47'8 8.4
2014-Apr-20 11:34N 54°45' E 019°36'1111.0
2014-Apr-20 10:33N 54°54' E 019°26'1211.9
2014-Apr-20 09:33N 55°06' E 019°29'10 9.9
2014-Apr-20 08:33N 55°15' E 019°34'11 9.2
2014-Apr-20 07:22N 55°26' E 019°39'  
2014-Apr-16 10:18N 55°42' E 015°60'1012.2
2014-Apr-16 09:28N 55°39' E 015°42'1112.2
2014-Apr-16 08:33N 55°35' E 015°24'1211.6
2014-Apr-16 07:33N 55°30' E 015°05'1312.8
2014-Apr-16 06:33N 55°25' E 014°45'1211.8
2014-Apr-16 05:33N 55°16' E 014°30'1211.8
2014-Apr-16 04:33N 55°07' E 014°17'1212.1
2014-Apr-16 03:33N 54°60' E 014°01'1212.4
2014-Apr-16 02:33N 54°56' E 013°40'1212.3
2014-Apr-16 01:33N 54°52' E 013°20'1212.5
2014-Apr-16 00:33N 54°48' E 012°59'1212.2
2014-Apr-15 23:33N 54°43' E 012°40'1312.6
2014-Apr-15 22:33N 54°36' E 012°22'1212.3
2014-Apr-15 21:33N 54°25' E 012°12'1212.0
2014-Apr-15 20:33N 54°25' E 011°51'1211.7
2014-Apr-15 19:33N 54°29' E 011°32'1212.4
2014-Apr-15 18:33N 54°34' E 011°13'59 6.6
2014-Apr-15 09:33N 54°15' E 009°37'7 6.9
2014-Apr-15 08:34N 54°11' E 009°27'5 5.0
2014-Apr-15 07:33N 54°08' E 009°20'6 6.2
2014-Apr-15 06:34N 54°02' E 009°18'7 6.8
2014-Apr-15 05:34N 53°56' E 009°13'5 2.2
2014-Apr-15 03:32N 53°53' E 009°06'0 0.0
2014-Apr-15 02:32N 53°53' E 009°06'0 0.0
2014-Apr-15 01:34N 53°53' E 009°06'5 5.1
2014-Apr-15 00:34N 53°51' E 008°59'1111.4
2014-Apr-14 23:34N 53°55' E 008°41'1211.9
2014-Apr-14 22:34N 53°59' E 008°22'1110.9
2014-Apr-14 21:33N 53°60' E 008°03'1010.3
2014-Apr-14 20:34N 54°05' E 007°48'1010.5
2014-Apr-14 19:33N 54°09' E 007°32'1010.4
2014-Apr-14 18:34N 54°09' E 007°14'1010.3
2014-Apr-14 17:33N 54°09' E 006°56'  

Dump ship's entire track history

sailing weather and tide predictions

Fure West — OZ2100 — position and weather